Occidental, CA (95465)

5:02 PM PDT on August 30, 2015 (GMT -0700)
Occidental Joy Rd | | Change Station
CLOSE
Current Station
Personal Weather Station
Location: Occidental, CA
Elevation: 1004 ft
Nearby Weather Stations

Elev 1004 ft 38.40 °N, 122.97 °W | Updated 19 seconds ago

Clear
Clear
70.9 °F
Feels Like 75 °F
N
0.0
Wind Variable Wind from SW
Gusts 0.0 mph

Today
High -- | Low -- °F
--% Chance of Precip.
Yesterday
High -- | Low -- °F
Precip. -- in
6:39 AM 7:44 PM
Full, 98% visible
Pressure 29.89 in
Visibility 10.0 miles
Clouds Clear
Heat Index 75 °F
Dew Point 30 °F
Humidity 22%
Rainfall 0.00 in
Snow Depth Not available.
UV 1.0 out of 12
Pollen 6.40 out of 12
Air Quality Not available.
Flu Activity Not available.
METAR KSTS 302353Z 34009G17KT 10SM CLR 32/10 A2991 RMK AO2 SLP122 T03170100 10322 20239 57019
Pressure 29.89 in
Visibility 10.0 miles
Clouds Clear
Heat Index 75 °F
Dew Point 30 °F
Humidity 22%
Rainfall 0.00 in
Snow Depth Not available.
UV 1.0 out of 12
Pollen 6.40 out of 12
Air Quality Not available.
Flu Activity Not available.
METAR KSTS 302353Z 34009G17KT 10SM CLR 32/10 A2991 RMK AO2 SLP122 T03170100 10322 20239 57019

10-Day Weather Forecast

×

Almanac

Astronomy

Aug. 30, 2015 Rise Set
Actual Time
Civil Twilight
Nautical Twilight
Astronomical Twilight
Moon
Length of Visible Light
Length of Day
Tomorrow will be .
, % of the Moon is Illuminated

Today's Extremes

State Highs State Lows

Community

WunderPhotos

Upload Photos

1,851,099 photos uploaded!

WunderBlogs® & News

Nearby

Air Quality

  Air Quality AQ Index Pollutant
Not available.

Snow Depth

Station Depth Elevation

Earthquake Activity

City Distance Mag. Time & Date
Minimum magnitude displayed is 2.5.

Coastal Water Temperatures

Place Temperature

Stations

Nearby Weather Stations

Station Location Temp. Windchill Dew Point Humidity Wind Precip. Elev Updated Type